الصفحة الرئيسية
METAR-TAF:

METAR-TAF

مطار :

مطار شانغهاي هونغكياو الدولي

شانغهاي-Hongqiao, جمهورية الصين الشعبية

دائرة عرض: 31-10N, خط طول: 121-26E, ارتفاع: 7 متر

مراقبة الطقس الحالي

تاريخ ووقت الإصدار 35 دقيقة قبل الساعة 01:30UTC
ريح 10 عقدة من الجنوب الغربي, الاتجاه يتراوح بين الجنوب/الجنوب الشرقي و الغرب
درجة الحرارة 36°درجة مئوية
الرطوبة 53%
ضغط 1006 hPa
الرؤية 10 كم أو أكثر
الغيوم لا تقل 1500 م ولا وجود لمزنة ركامية السحاب الأسود

METAR: ZSSS 180130Z 23005MPS 150V270 CAVOK 36/25 Q1006 NOSIG

زمن: 10:05 (02:05 UTC)

توقعات

تاريخ ووقت الإصدار 5ساعات و 2 دقيقة قبل الساعة 21:03UTC
التوقعات صالحة من18 الساعة 00 UTC إلى 19 الساعة 06 UTC
ريح 8 عقدة من الجنوب
الرؤية: 8000 متر
غيوم متفرقة على ارتفاع 2000 قدم
مؤقت
من 18 الساعة 07 UTC إلى 18 الساعة 11 UTC
غيوم مفككة على ارتفاع 1100 قدم
غيوم قليلة على ارتفاع 3000 قدم, مزنة ركامية.
عاصفة رعدية, مطر,

TAF: ZSSS 172103Z 1800/1906 19004MPS 8000 SCT020 TX38/1806Z TX38/1906Z TN29/1821Z TEMPO 1807/1811 TSRA BKN011 FEW030CB

أرصاد الطقس والتوقعات من أكثر من 4000 مطار (تقارير الطقس للمطار METAR والتنبؤ بالطقس بالمطارTAF).

المحطات المتاحة هي النقط الصفراء والحمراء على الخريطة.

حرك المؤشر فوق النقطة لمعرفة اسم المحطة.

ثم انقر لمعرفة أرصاد وتوقعات الطقس.

لتغيير الخارطة: اضغط على الأزرار الخضراء مع رمز الصليب الأسود للتكبير. على الزر الأخضر مع شرطة للتصغير، أو على الأسهم الخضراء للخرائط المجاورة.


METAR-TAF: